sensor_id;sensor_type;location;lat;lon;timestamp;temperature;humidity
78694;SHT31;68029;51.978;5.646;2023-03-03T00:01:23;5.7;65.6
78694;SHT31;68029;51.978;5.646;2023-03-03T00:03:53;5.7;65.7
78694;SHT31;68029;51.978;5.646;2023-03-03T00:06:23;5.7;65.7
78694;SHT31;68029;51.978;5.646;2023-03-03T00:08:53;5.7;66.0
78694;SHT31;68029;51.978;5.646;2023-03-03T00:11:22;5.7;66.1
78694;SHT31;68029;51.978;5.646;2023-03-03T00:13:54;5.7;66.0
78694;SHT31;68029;51.978;5.646;2023-03-03T00:16:27;5.7;66.2
78694;SHT31;68029;51.978;5.646;2023-03-03T00:18:57;5.7;66.3
78694;SHT31;68029;51.978;5.646;2023-03-03T00:21:32;5.7;66.2
78694;SHT31;68029;51.978;5.646;2023-03-03T00:24:19;5.7;66.2
78694;SHT31;68029;51.978;5.646;2023-03-03T00:26:51;5.7;66.0
78694;SHT31;68029;51.978;5.646;2023-03-03T00:29:30;5.6;66.1
78694;SHT31;68029;51.978;5.646;2023-03-03T00:32:18;5.6;66.0
78694;SHT31;68029;51.978;5.646;2023-03-03T00:34:50;5.6;65.9
78694;SHT31;68029;51.978;5.646;2023-03-03T00:37:25;5.6;65.9
78694;SHT31;68029;51.978;5.646;2023-03-03T00:40:15;5.6;65.7
78694;SHT31;68029;51.978;5.646;2023-03-03T00:42:49;5.6;65.6
78694;SHT31;68029;51.978;5.646;2023-03-03T00:45:26;5.5;65.5
78694;SHT31;68029;51.978;5.646;2023-03-03T00:47:58;5.5;65.3
78694;SHT31;68029;51.978;5.646;2023-03-03T00:50:33;5.4;65.4
78694;SHT31;68029;51.978;5.646;2023-03-03T00:53:11;5.4;65.5
78694;SHT31;68029;51.978;5.646;2023-03-03T00:55:44;5.3;65.6
78694;SHT31;68029;51.978;5.646;2023-03-03T00:58:15;5.3;65.8
78694;SHT31;68029;51.978;5.646;2023-03-03T01:00:44;5.3;66.0
78694;SHT31;68029;51.978;5.646;2023-03-03T01:03:16;5.2;66.2
78694;SHT31;68029;51.978;5.646;2023-03-03T01:05:47;5.2;66.3
78694;SHT31;68029;51.978;5.646;2023-03-03T01:08:17;5.2;66.4
78694;SHT31;68029;51.978;5.646;2023-03-03T01:10:50;5.2;66.4
78694;SHT31;68029;51.978;5.646;2023-03-03T01:13:22;5.2;66.5
78694;SHT31;68029;51.978;5.646;2023-03-03T01:15:52;5.2;66.6
78694;SHT31;68029;51.978;5.646;2023-03-03T01:18:24;5.2;66.6
78694;SHT31;68029;51.978;5.646;2023-03-03T01:20:53;5.2;66.7
78694;SHT31;68029;51.978;5.646;2023-03-03T01:23:23;5.1;66.7
78694;SHT31;68029;51.978;5.646;2023-03-03T01:25:52;5.1;66.9
78694;SHT31;68029;51.978;5.646;2023-03-03T01:28:22;5.2;66.9
78694;SHT31;68029;51.978;5.646;2023-03-03T01:30:52;5.2;66.8
78694;SHT31;68029;51.978;5.646;2023-03-03T01:33:22;5.2;66.7
78694;SHT31;68029;51.978;5.646;2023-03-03T01:35:51;5.2;66.7
78694;SHT31;68029;51.978;5.646;2023-03-03T01:38:20;5.2;66.8
78694;SHT31;68029;51.978;5.646;2023-03-03T01:40:54;5.2;66.8
78694;SHT31;68029;51.978;5.646;2023-03-03T01:43:25;5.2;66.7
78694;SHT31;68029;51.978;5.646;2023-03-03T01:46:30;5.3;66.7
78694;SHT31;68029;51.978;5.646;2023-03-03T01:49:05;5.3;66.5
78694;SHT31;68029;51.978;5.646;2023-03-03T01:51:42;5.3;66.4
78694;SHT31;68029;51.978;5.646;2023-03-03T01:54:18;5.3;66.3
78694;SHT31;68029;51.978;5.646;2023-03-03T01:56:51;5.3;66.2
78694;SHT31;68029;51.978;5.646;2023-03-03T01:59:25;5.3;66.0
78694;SHT31;68029;51.978;5.646;2023-03-03T02:01:57;5.3;65.9
78694;SHT31;68029;51.978;5.646;2023-03-03T02:04:29;5.3;65.9
78694;SHT31;68029;51.978;5.646;2023-03-03T02:07:06;5.3;66.1
78694;SHT31;68029;51.978;5.646;2023-03-03T02:09:43;5.3;66.2
78694;SHT31;68029;51.978;5.646;2023-03-03T02:12:17;5.3;66.1
78694;SHT31;68029;51.978;5.646;2023-03-03T02:14:47;5.3;66.1
78694;SHT31;68029;51.978;5.646;2023-03-03T02:17:17;5.3;66.2
78694;SHT31;68029;51.978;5.646;2023-03-03T02:19:53;5.3;66.1
78694;SHT31;68029;51.978;5.646;2023-03-03T02:22:33;5.3;65.9
78694;SHT31;68029;51.978;5.646;2023-03-03T02:25:07;5.3;65.8
78694;SHT31;68029;51.978;5.646;2023-03-03T02:27:39;5.3;65.9
78694;SHT31;68029;51.978;5.646;2023-03-03T02:30:12;5.3;66.0
78694;SHT31;68029;51.978;5.646;2023-03-03T02:32:42;5.3;65.9
78694;SHT31;68029;51.978;5.646;2023-03-03T02:35:30;5.4;65.8
78694;SHT31;68029;51.978;5.646;2023-03-03T02:38:06;5.4;65.9
78694;SHT31;68029;51.978;5.646;2023-03-03T02:40:44;5.4;65.9
78694;SHT31;68029;51.978;5.646;2023-03-03T02:43:19;5.4;65.7
78694;SHT31;68029;51.978;5.646;2023-03-03T02:45:51;5.5;65.7
78694;SHT31;68029;51.978;5.646;2023-03-03T02:48:21;5.5;65.7
78694;SHT31;68029;51.978;5.646;2023-03-03T02:50:50;5.5;65.6
78694;SHT31;68029;51.978;5.646;2023-03-03T02:53:20;5.5;65.5
78694;SHT31;68029;51.978;5.646;2023-03-03T02:55:49;5.6;65.5
78694;SHT31;68029;51.978;5.646;2023-03-03T02:58:19;5.6;65.5
78694;SHT31;68029;51.978;5.646;2023-03-03T03:00:48;5.6;65.4
78694;SHT31;68029;51.978;5.646;2023-03-03T03:03:18;5.6;65.5
78694;SHT31;68029;51.978;5.646;2023-03-03T03:05:47;5.6;65.3
78694;SHT31;68029;51.978;5.646;2023-03-03T03:08:17;5.6;65.3
78694;SHT31;68029;51.978;5.646;2023-03-03T03:10:47;5.6;65.4
78694;SHT31;68029;51.978;5.646;2023-03-03T03:13:17;5.6;65.2
78694;SHT31;68029;51.978;5.646;2023-03-03T03:15:48;5.6;65.2
78694;SHT31;68029;51.978;5.646;2023-03-03T03:18:18;5.6;65.3
78694;SHT31;68029;51.978;5.646;2023-03-03T03:20:49;5.6;65.2
78694;SHT31;68029;51.978;5.646;2023-03-03T03:23:19;5.5;65.1
78694;SHT31;68029;51.978;5.646;2023-03-03T03:25:49;5.5;65.2
78694;SHT31;68029;51.978;5.646;2023-03-03T03:28:18;5.5;65.2
78694;SHT31;68029;51.978;5.646;2023-03-03T03:30:50;5.5;65.3
78694;SHT31;68029;51.978;5.646;2023-03-03T03:33:19;5.4;65.3
78694;SHT31;68029;51.978;5.646;2023-03-03T03:35:49;5.4;65.4
78694;SHT31;68029;51.978;5.646;2023-03-03T03:38:19;5.4;65.4
78694;SHT31;68029;51.978;5.646;2023-03-03T03:40:48;5.4;65.7
78694;SHT31;68029;51.978;5.646;2023-03-03T03:43:18;5.3;65.7
78694;SHT31;68029;51.978;5.646;2023-03-03T03:45:48;5.3;65.8
78694;SHT31;68029;51.978;5.646;2023-03-03T03:48:17;5.3;65.8
78694;SHT31;68029;51.978;5.646;2023-03-03T03:50:49;5.3;65.8
78694;SHT31;68029;51.978;5.646;2023-03-03T03:53:19;5.3;65.6
78694;SHT31;68029;51.978;5.646;2023-03-03T03:55:48;5.3;65.6
78694;SHT31;68029;51.978;5.646;2023-03-03T03:58:18;5.3;65.7
78694;SHT31;68029;51.978;5.646;2023-03-03T04:00:48;5.2;65.8
78694;SHT31;68029;51.978;5.646;2023-03-03T04:03:18;5.2;65.8
78694;SHT31;68029;51.978;5.646;2023-03-03T04:05:48;5.2;65.9
78694;SHT31;68029;51.978;5.646;2023-03-03T04:08:21;5.2;66.0
78694;SHT31;68029;51.978;5.646;2023-03-03T04:10:51;5.2;66.2
78694;SHT31;68029;51.978;5.646;2023-03-03T04:13:20;5.1;66.1
78694;SHT31;68029;51.978;5.646;2023-03-03T04:15:50;5.1;66.0
78694;SHT31;68029;51.978;5.646;2023-03-03T04:18:20;5.1;65.9
78694;SHT31;68029;51.978;5.646;2023-03-03T04:20:49;5.1;66.0
78694;SHT31;68029;51.978;5.646;2023-03-03T04:23:21;5.1;66.0
78694;SHT31;68029;51.978;5.646;2023-03-03T04:25:50;5.1;65.8
78694;SHT31;68029;51.978;5.646;2023-03-03T04:28:22;5.1;65.8
78694;SHT31;68029;51.978;5.646;2023-03-03T04:30:52;5.1;65.9
78694;SHT31;68029;51.978;5.646;2023-03-03T04:33:22;5.1;66.1
78694;SHT31;68029;51.978;5.646;2023-03-03T04:35:51;5.1;66.1
78694;SHT31;68029;51.978;5.646;2023-03-03T04:38:21;5.1;66.2
78694;SHT31;68029;51.978;5.646;2023-03-03T04:40:50;5.1;66.3
78694;SHT31;68029;51.978;5.646;2023-03-03T04:43:20;5.1;66.3
78694;SHT31;68029;51.978;5.646;2023-03-03T04:45:51;5.1;66.1
78694;SHT31;68029;51.978;5.646;2023-03-03T04:48:21;5.1;65.9
78694;SHT31;68029;51.978;5.646;2023-03-03T04:50:51;5.1;65.9
78694;SHT31;68029;51.978;5.646;2023-03-03T04:53:20;5.1;65.9
78694;SHT31;68029;51.978;5.646;2023-03-03T04:55:51;5.1;66.0
78694;SHT31;68029;51.978;5.646;2023-03-03T04:58:21;5.1;66.2
78694;SHT31;68029;51.978;5.646;2023-03-03T05:00:55;5.0;66.4
78694;SHT31;68029;51.978;5.646;2023-03-03T05:03:26;5.0;66.4
78694;SHT31;68029;51.978;5.646;2023-03-03T05:05:58;5.0;66.6
78694;SHT31;68029;51.978;5.646;2023-03-03T05:08:29;4.9;66.7
78694;SHT31;68029;51.978;5.646;2023-03-03T05:10:59;4.9;66.9
78694;SHT31;68029;51.978;5.646;2023-03-03T05:13:28;4.9;66.8
78694;SHT31;68029;51.978;5.646;2023-03-03T05:15:58;4.9;66.8
78694;SHT31;68029;51.978;5.646;2023-03-03T05:18:28;4.9;66.7
78694;SHT31;68029;51.978;5.646;2023-03-03T05:20:59;4.9;66.8
78694;SHT31;68029;51.978;5.646;2023-03-03T05:23:29;4.9;66.9
78694;SHT31;68029;51.978;5.646;2023-03-03T05:25:59;4.9;66.7
78694;SHT31;68029;51.978;5.646;2023-03-03T05:28:29;4.9;66.7
78694;SHT31;68029;51.978;5.646;2023-03-03T05:30:58;4.9;66.8
78694;SHT31;68029;51.978;5.646;2023-03-03T05:33:28;4.8;67.0
78694;SHT31;68029;51.978;5.646;2023-03-03T05:35:57;4.8;67.0
78694;SHT31;68029;51.978;5.646;2023-03-03T05:38:29;4.8;66.9
78694;SHT31;68029;51.978;5.646;2023-03-03T05:40:58;4.8;66.8
78694;SHT31;68029;51.978;5.646;2023-03-03T05:43:28;4.8;66.6
78694;SHT31;68029;51.978;5.646;2023-03-03T05:45:58;4.8;66.6
78694;SHT31;68029;51.978;5.646;2023-03-03T05:48:27;4.8;66.7
78694;SHT31;68029;51.978;5.646;2023-03-03T05:50:59;4.7;66.9
78694;SHT31;68029;51.978;5.646;2023-03-03T05:53:31;4.7;67.1
78694;SHT31;68029;51.978;5.646;2023-03-03T05:56:01;4.7;67.2
78694;SHT31;68029;51.978;5.646;2023-03-03T05:58:32;4.7;67.2
78694;SHT31;68029;51.978;5.646;2023-03-03T06:01:02;4.7;67.5
78694;SHT31;68029;51.978;5.646;2023-03-03T06:03:31;4.7;67.6
78694;SHT31;68029;51.978;5.646;2023-03-03T06:06:01;4.7;67.6
78694;SHT31;68029;51.978;5.646;2023-03-03T06:08:30;4.7;67.7
78694;SHT31;68029;51.978;5.646;2023-03-03T06:11:00;4.7;67.7
78694;SHT31;68029;51.978;5.646;2023-03-03T06:13:30;4.7;67.8
78694;SHT31;68029;51.978;5.646;2023-03-03T06:15:59;4.7;67.8
78694;SHT31;68029;51.978;5.646;2023-03-03T06:18:29;4.7;67.6
78694;SHT31;68029;51.978;5.646;2023-03-03T06:20:58;4.8;67.6
78694;SHT31;68029;51.978;5.646;2023-03-03T06:23:27;4.8;67.6
78694;SHT31;68029;51.978;5.646;2023-03-03T06:25:57;4.8;67.5
78694;SHT31;68029;51.978;5.646;2023-03-03T06:28:27;4.8;67.5
78694;SHT31;68029;51.978;5.646;2023-03-03T06:30:56;4.8;67.4
78694;SHT31;68029;51.978;5.646;2023-03-03T06:33:26;4.8;67.5
78694;SHT31;68029;51.978;5.646;2023-03-03T06:35:55;4.8;67.5
78694;SHT31;68029;51.978;5.646;2023-03-03T06:38:25;4.8;67.5
78694;SHT31;68029;51.978;5.646;2023-03-03T06:40:54;4.9;67.4
78694;SHT31;68029;51.978;5.646;2023-03-03T06:43:25;4.9;67.5
78694;SHT31;68029;51.978;5.646;2023-03-03T06:45:54;4.9;67.5
78694;SHT31;68029;51.978;5.646;2023-03-03T06:48:23;4.9;67.7
78694;SHT31;68029;51.978;5.646;2023-03-03T06:50:53;4.9;67.7
78694;SHT31;68029;51.978;5.646;2023-03-03T06:53:24;5.0;67.6
78694;SHT31;68029;51.978;5.646;2023-03-03T06:55:57;5.0;67.6
78694;SHT31;68029;51.978;5.646;2023-03-03T06:58:28;5.0;67.7
78694;SHT31;68029;51.978;5.646;2023-03-03T07:00:59;5.0;67.6
78694;SHT31;68029;51.978;5.646;2023-03-03T07:03:33;5.0;67.7
78694;SHT31;68029;51.978;5.646;2023-03-03T07:06:13;5.1;67.7
78694;SHT31;68029;51.978;5.646;2023-03-03T07:08:44;5.1;67.8
78694;SHT31;68029;51.978;5.646;2023-03-03T07:11:17;5.1;67.6
78694;SHT31;68029;51.978;5.646;2023-03-03T07:13:49;5.2;67.7
78694;SHT31;68029;51.978;5.646;2023-03-03T07:16:25;5.2;67.7
78694;SHT31;68029;51.978;5.646;2023-03-03T07:18:58;5.2;67.7
78694;SHT31;68029;51.978;5.646;2023-03-03T07:21:33;5.2;67.9
78694;SHT31;68029;51.978;5.646;2023-03-03T07:24:12;5.3;67.8
78694;SHT31;68029;51.978;5.646;2023-03-03T07:26:44;5.3;68.0
78694;SHT31;68029;51.978;5.646;2023-03-03T07:29:22;5.3;68.0
78694;SHT31;68029;51.978;5.646;2023-03-03T07:31:55;5.3;68.3
78694;SHT31;68029;51.978;5.646;2023-03-03T07:34:30;5.3;68.4
78694;SHT31;68029;51.978;5.646;2023-03-03T07:37:14;5.4;68.2
78694;SHT31;68029;51.978;5.646;2023-03-03T07:39:49;5.4;68.2
78694;SHT31;68029;51.978;5.646;2023-03-03T07:42:23;5.4;68.2
78694;SHT31;68029;51.978;5.646;2023-03-03T07:44:56;5.5;68.2
78694;SHT31;68029;51.978;5.646;2023-03-03T07:47:29;5.5;68.3
78694;SHT31;68029;51.978;5.646;2023-03-03T07:50:00;5.5;68.4
78694;SHT31;68029;51.978;5.646;2023-03-03T07:52:40;5.5;68.5
78694;SHT31;68029;51.978;5.646;2023-03-03T07:55:29;5.6;68.3
78694;SHT31;68029;51.978;5.646;2023-03-03T07:58:16;5.6;68.2
78694;SHT31;68029;51.978;5.646;2023-03-03T08:01:36;5.6;68.3
78694;SHT31;68029;51.978;5.646;2023-03-03T08:04:21;5.7;68.2
78694;SHT31;68029;51.978;5.646;2023-03-03T08:06:53;5.7;68.3
78694;SHT31;68029;51.978;5.646;2023-03-03T08:09:47;5.8;67.9
78694;SHT31;68029;51.978;5.646;2023-03-03T08:12:39;5.8;67.9
78694;SHT31;68029;51.978;5.646;2023-03-03T08:15:21;5.8;68.1
78694;SHT31;68029;51.978;5.646;2023-03-03T08:17:53;5.9;67.8
78694;SHT31;68029;51.978;5.646;2023-03-03T08:20:42;5.9;67.7
78694;SHT31;68029;51.978;5.646;2023-03-03T08:23:15;5.9;67.7
78694;SHT31;68029;51.978;5.646;2023-03-03T08:25:46;6.0;67.3
78694;SHT31;68029;51.978;5.646;2023-03-03T08:28:16;6.0;66.7
78694;SHT31;68029;51.978;5.646;2023-03-03T08:30:46;6.0;66.6
78694;SHT31;68029;51.978;5.646;2023-03-03T08:33:17;6.0;66.4
78694;SHT31;68029;51.978;5.646;2023-03-03T08:35:49;6.1;66.3
78694;SHT31;68029;51.978;5.646;2023-03-03T08:38:19;6.1;66.5
78694;SHT31;68029;51.978;5.646;2023-03-03T08:40:49;6.1;66.5
78694;SHT31;68029;51.978;5.646;2023-03-03T08:43:19;6.1;66.9
78694;SHT31;68029;51.978;5.646;2023-03-03T08:45:52;6.2;66.7
78694;SHT31;68029;51.978;5.646;2023-03-03T08:48:25;6.2;65.9
78694;SHT31;68029;51.978;5.646;2023-03-03T08:50:54;6.3;65.3
78694;SHT31;68029;51.978;5.646;2023-03-03T08:53:24;6.3;65.2
78694;SHT31;68029;51.978;5.646;2023-03-03T08:55:55;6.4;64.8
78694;SHT31;68029;51.978;5.646;2023-03-03T08:58:24;6.4;64.2
78694;SHT31;68029;51.978;5.646;2023-03-03T09:00:54;6.4;64.3
78694;SHT31;68029;51.978;5.646;2023-03-03T09:03:25;6.5;64.4
78694;SHT31;68029;51.978;5.646;2023-03-03T09:05:55;6.5;64.9
78694;SHT31;68029;51.978;5.646;2023-03-03T09:08:26;6.5;64.6
78694;SHT31;68029;51.978;5.646;2023-03-03T09:10:55;6.6;64.5
78694;SHT31;68029;51.978;5.646;2023-03-03T09:13:29;6.6;64.4
78694;SHT31;68029;51.978;5.646;2023-03-03T09:15:59;6.6;63.5
78694;SHT31;68029;51.978;5.646;2023-03-03T09:18:34;6.7;63.3
78694;SHT31;68029;51.978;5.646;2023-03-03T09:21:15;6.7;63.1
78694;SHT31;68029;51.978;5.646;2023-03-03T09:23:52;6.7;62.2
78694;SHT31;68029;51.978;5.646;2023-03-03T09:26:27;6.7;62.5
78694;SHT31;68029;51.978;5.646;2023-03-03T09:29:14;6.8;62.2
78694;SHT31;68029;51.978;5.646;2023-03-03T09:31:47;6.8;62.0
78694;SHT31;68029;51.978;5.646;2023-03-03T09:34:22;6.9;62.9
78694;SHT31;68029;51.978;5.646;2023-03-03T09:36:55;7.0;63.7
78694;SHT31;68029;51.978;5.646;2023-03-03T09:39:29;7.3;63.5
78694;SHT31;68029;51.978;5.646;2023-03-03T09:42:51;7.7;62.8
78694;SHT31;68029;51.978;5.646;2023-03-03T09:45:30;8.4;58.3
78694;SHT31;68029;51.978;5.646;2023-03-03T09:48:30;8.8;57.3
78694;SHT31;68029;51.978;5.646;2023-03-03T09:51:14;9.1;56.1
78694;SHT31;68029;51.978;5.646;2023-03-03T09:53:59;9.4;54.7
78694;SHT31;68029;51.978;5.646;2023-03-03T09:56:40;9.6;53.5
78694;SHT31;68029;51.978;5.646;2023-03-03T09:59:25;9.8;53.7
78694;SHT31;68029;51.978;5.646;2023-03-03T10:02:13;10.0;53.9
78694;SHT31;68029;51.978;5.646;2023-03-03T10:05:03;10.2;53.1
78694;SHT31;68029;51.978;5.646;2023-03-03T10:07:39;10.5;51.6
78694;SHT31;68029;51.978;5.646;2023-03-03T10:10:32;10.7;50.8
78694;SHT31;68029;51.978;5.646;2023-03-03T10:13:17;11.0;49.5
78694;SHT31;68029;51.978;5.646;2023-03-03T10:15:57;11.3;50.0
78694;SHT31;68029;51.978;5.646;2023-03-03T10:18:38;11.6;48.3
78694;SHT31;68029;51.978;5.646;2023-03-03T10:21:21;11.9;47.4
78694;SHT31;68029;51.978;5.646;2023-03-03T10:23:55;12.1;46.6
78694;SHT31;68029;51.978;5.646;2023-03-03T10:26:47;12.2;46.5
78694;SHT31;68029;51.978;5.646;2023-03-03T10:29:32;12.4;45.5
78694;SHT31;68029;51.978;5.646;2023-03-03T10:32:41;12.5;45.8
78694;SHT31;68029;51.978;5.646;2023-03-03T10:35:35;12.7;45.5
78694;SHT31;68029;51.978;5.646;2023-03-03T10:38:33;12.9;44.8
78694;SHT31;68029;51.978;5.646;2023-03-03T10:41:19;13.1;44.6
78694;SHT31;68029;51.978;5.646;2023-03-03T10:44:30;13.3;44.3
78694;SHT31;68029;51.978;5.646;2023-03-03T10:47:24;13.6;43.1
78694;SHT31;68029;51.978;5.646;2023-03-03T10:50:04;13.8;42.8
78694;SHT31;68029;51.978;5.646;2023-03-03T10:52:45;14.0;42.2
78694;SHT31;68029;51.978;5.646;2023-03-03T10:55:32;14.2;42.4
78694;SHT31;68029;51.978;5.646;2023-03-03T10:58:44;14.3;41.2
78694;SHT31;68029;51.978;5.646;2023-03-03T11:01:22;14.4;41.5
78694;SHT31;68029;51.978;5.646;2023-03-03T11:04:18;14.5;40.7
78694;SHT31;68029;51.978;5.646;2023-03-03T11:06:55;14.6;40.7
78694;SHT31;68029;51.978;5.646;2023-03-03T11:10:02;14.7;40.2
78694;SHT31;68029;51.978;5.646;2023-03-03T11:12:43;14.8;40.4
78694;SHT31;68029;51.978;5.646;2023-03-03T11:15:43;14.8;40.8
78694;SHT31;68029;51.978;5.646;2023-03-03T11:18:22;15.0;40.3
78694;SHT31;68029;51.978;5.646;2023-03-03T11:21:05;15.1;39.8
78694;SHT31;68029;51.978;5.646;2023-03-03T11:23:57;15.2;40.1
78694;SHT31;68029;51.978;5.646;2023-03-03T11:26:51;15.3;38.6
78694;SHT31;68029;51.978;5.646;2023-03-03T11:29:51;15.4;39.4
78694;SHT31;68029;51.978;5.646;2023-03-03T11:32:35;15.5;38.7
78694;SHT31;68029;51.978;5.646;2023-03-03T11:35:21;15.6;39.0
78694;SHT31;68029;51.978;5.646;2023-03-03T11:38:00;15.7;38.3
78694;SHT31;68029;51.978;5.646;2023-03-03T11:40:44;15.8;37.9
78694;SHT31;68029;51.978;5.646;2023-03-03T11:43:19;15.9;37.5
78694;SHT31;68029;51.978;5.646;2023-03-03T11:45:55;15.9;37.1
78694;SHT31;68029;51.978;5.646;2023-03-03T11:48:35;16.0;36.9
78694;SHT31;68029;51.978;5.646;2023-03-03T11:51:14;16.0;37.3
78694;SHT31;68029;51.978;5.646;2023-03-03T11:53:54;16.1;37.8
78694;SHT31;68029;51.978;5.646;2023-03-03T11:56:28;16.3;37.0
78694;SHT31;68029;51.978;5.646;2023-03-03T11:59:12;16.5;36.4
78694;SHT31;68029;51.978;5.646;2023-03-03T12:01:51;16.6;36.7
78694;SHT31;68029;51.978;5.646;2023-03-03T12:04:30;16.7;36.3
78694;SHT31;68029;51.978;5.646;2023-03-03T12:07:15;16.8;35.0
78694;SHT31;68029;51.978;5.646;2023-03-03T12:09:56;16.9;35.3
78694;SHT31;68029;51.978;5.646;2023-03-03T12:12:33;16.9;35.5
78694;SHT31;68029;51.978;5.646;2023-03-03T12:15:16;16.9;34.6
78694;SHT31;68029;51.978;5.646;2023-03-03T12:18:00;16.9;34.3
78694;SHT31;68029;51.978;5.646;2023-03-03T12:20:42;17.0;34.9
78694;SHT31;68029;51.978;5.646;2023-03-03T12:23:30;17.0;34.0
78694;SHT31;68029;51.978;5.646;2023-03-03T12:26:10;17.0;33.2
78694;SHT31;68029;51.978;5.646;2023-03-03T12:28:51;17.0;33.6
78694;SHT31;68029;51.978;5.646;2023-03-03T12:31:29;17.0;33.9
78694;SHT31;68029;51.978;5.646;2023-03-03T12:34:10;17.0;33.3
78694;SHT31;68029;51.978;5.646;2023-03-03T12:38:57;17.1;32.7
78694;SHT31;68029;51.978;5.646;2023-03-03T12:41:38;17.2;33.8
78694;SHT31;68029;51.978;5.646;2023-03-03T12:44:17;17.4;33.8
78694;SHT31;68029;51.978;5.646;2023-03-03T12:46:56;17.5;34.8
78694;SHT31;68029;51.978;5.646;2023-03-03T12:49:37;17.6;33.3
78694;SHT31;68029;51.978;5.646;2023-03-03T12:52:20;17.7;32.6
78694;SHT31;68029;51.978;5.646;2023-03-03T12:55:04;17.8;32.3
78694;SHT31;68029;51.978;5.646;2023-03-03T12:57:44;17.8;32.2
78694;SHT31;68029;51.978;5.646;2023-03-03T13:00:23;17.7;32.2
78694;SHT31;68029;51.978;5.646;2023-03-03T13:03:00;17.6;32.7
78694;SHT31;68029;51.978;5.646;2023-03-03T13:05:46;17.5;32.4
78694;SHT31;68029;51.978;5.646;2023-03-03T13:08:32;17.4;32.2
78694;SHT31;68029;51.978;5.646;2023-03-03T13:11:20;17.3;32.0
78694;SHT31;68029;51.978;5.646;2023-03-03T13:14:00;17.1;32.8
78694;SHT31;68029;51.978;5.646;2023-03-03T13:16:37;17.0;32.6
78694;SHT31;68029;51.978;5.646;2023-03-03T13:19:10;16.9;32.8
78694;SHT31;68029;51.978;5.646;2023-03-03T13:21:47;16.9;33.3
78694;SHT31;68029;51.978;5.646;2023-03-03T13:24:24;17.0;33.6
78694;SHT31;68029;51.978;5.646;2023-03-03T13:26:59;17.1;32.8
78694;SHT31;68029;51.978;5.646;2023-03-03T13:29:34;17.3;33.4
78694;SHT31;68029;51.978;5.646;2023-03-03T13:32:11;17.4;33.5
78694;SHT31;68029;51.978;5.646;2023-03-03T13:34:52;17.6;32.9
78694;SHT31;68029;51.978;5.646;2023-03-03T13:37:29;17.7;33.0
78694;SHT31;68029;51.978;5.646;2023-03-03T13:40:04;17.7;32.2
78694;SHT31;68029;51.978;5.646;2023-03-03T13:42:39;17.7;32.5
78694;SHT31;68029;51.978;5.646;2023-03-03T13:45:17;17.8;32.1
78694;SHT31;68029;51.978;5.646;2023-03-03T13:47:53;17.8;32.3
78694;SHT31;68029;51.978;5.646;2023-03-03T13:50:31;17.9;32.8
78694;SHT31;68029;51.978;5.646;2023-03-03T13:53:22;18.1;31.4
78694;SHT31;68029;51.978;5.646;2023-03-03T13:56:01;18.2;31.7
78694;SHT31;68029;51.978;5.646;2023-03-03T13:58:42;18.3;31.8
78694;SHT31;68029;51.978;5.646;2023-03-03T14:01:24;18.5;31.5
78694;SHT31;68029;51.978;5.646;2023-03-03T14:04:05;18.7;31.5
78694;SHT31;68029;51.978;5.646;2023-03-03T14:06:44;18.9;30.6
78694;SHT31;68029;51.978;5.646;2023-03-03T14:09:38;18.9;30.0
78694;SHT31;68029;51.978;5.646;2023-03-03T14:12:21;18.9;29.6
78694;SHT31;68029;51.978;5.646;2023-03-03T14:15:00;18.7;29.6
78694;SHT31;68029;51.978;5.646;2023-03-03T14:17:39;18.3;30.2
78694;SHT31;68029;51.978;5.646;2023-03-03T14:20:18;18.1;31.0
78694;SHT31;68029;51.978;5.646;2023-03-03T14:22:54;18.1;31.4
78694;SHT31;68029;51.978;5.646;2023-03-03T14:25:29;18.1;31.6
78694;SHT31;68029;51.978;5.646;2023-03-03T14:28:11;18.1;31.6
78694;SHT31;68029;51.978;5.646;2023-03-03T14:30:41;18.0;31.7
78694;SHT31;68029;51.978;5.646;2023-03-03T14:33:22;17.8;31.8
78694;SHT31;68029;51.978;5.646;2023-03-03T14:36:11;17.5;32.6
78694;SHT31;68029;51.978;5.646;2023-03-03T14:38:46;17.2;32.8
78694;SHT31;68029;51.978;5.646;2023-03-03T14:41:21;17.0;33.7
78694;SHT31;68029;51.978;5.646;2023-03-03T14:43:58;16.9;34.1
78694;SHT31;68029;51.978;5.646;2023-03-03T14:46:39;17.1;34.0
78694;SHT31;68029;51.978;5.646;2023-03-03T14:49:15;17.5;33.9
78694;SHT31;68029;51.978;5.646;2023-03-03T14:51:49;18.0;33.4
78694;SHT31;68029;51.978;5.646;2023-03-03T14:54:25;18.3;32.5
78694;SHT31;68029;51.978;5.646;2023-03-03T14:56:59;18.4;32.2
78694;SHT31;68029;51.978;5.646;2023-03-03T14:59:29;18.5;31.6
78694;SHT31;68029;51.978;5.646;2023-03-03T15:05:15;18.4;31.4
78694;SHT31;68029;51.978;5.646;2023-03-03T15:07:47;18.3;32.0
78694;SHT31;68029;51.978;5.646;2023-03-03T15:10:29;18.2;32.0
78694;SHT31;68029;51.978;5.646;2023-03-03T15:13:11;18.1;31.1
78694;SHT31;68029;51.978;5.646;2023-03-03T15:15:52;17.9;32.5
78694;SHT31;68029;51.978;5.646;2023-03-03T15:18:26;17.6;31.7
78694;SHT31;68029;51.978;5.646;2023-03-03T15:20:59;17.3;32.1
78694;SHT31;68029;51.978;5.646;2023-03-03T15:23:44;17.0;32.5
78694;SHT31;68029;51.978;5.646;2023-03-03T15:26:22;16.7;33.2
78694;SHT31;68029;51.978;5.646;2023-03-03T15:29:00;16.3;34.2
78694;SHT31;68029;51.978;5.646;2023-03-03T15:31:43;15.9;34.7
78694;SHT31;68029;51.978;5.646;2023-03-03T15:34:28;15.7;35.4
78694;SHT31;68029;51.978;5.646;2023-03-03T15:37:14;15.5;36.4
78694;SHT31;68029;51.978;5.646;2023-03-03T15:39:53;15.2;36.8
78694;SHT31;68029;51.978;5.646;2023-03-03T15:42:32;15.1;37.2
78694;SHT31;68029;51.978;5.646;2023-03-03T15:45:15;14.9;36.4
78694;SHT31;68029;51.978;5.646;2023-03-03T15:48:09;14.7;36.5
78694;SHT31;68029;51.978;5.646;2023-03-03T15:50:55;14.6;36.5
78694;SHT31;68029;51.978;5.646;2023-03-03T15:53:41;14.4;37.0
78694;SHT31;68029;51.978;5.646;2023-03-03T15:56:22;14.3;36.7
78694;SHT31;68029;51.978;5.646;2023-03-03T15:59:22;14.0;37.0
78694;SHT31;68029;51.978;5.646;2023-03-03T16:02:04;13.8;38.1
78694;SHT31;68029;51.978;5.646;2023-03-03T16:04:41;13.7;38.4
78694;SHT31;68029;51.978;5.646;2023-03-03T16:07:25;13.6;38.8
78694;SHT31;68029;51.978;5.646;2023-03-03T16:10:06;13.5;39.4
78694;SHT31;68029;51.978;5.646;2023-03-03T16:12:49;13.5;39.9
78694;SHT31;68029;51.978;5.646;2023-03-03T16:15:36;13.4;42.8
78694;SHT31;68029;51.978;5.646;2023-03-03T16:18:18;13.4;40.7
78694;SHT31;68029;51.978;5.646;2023-03-03T16:21:02;13.3;40.2
78694;SHT31;68029;51.978;5.646;2023-03-03T16:23:42;13.3;40.2
78694;SHT31;68029;51.978;5.646;2023-03-03T16:26:42;13.2;40.7
78694;SHT31;68029;51.978;5.646;2023-03-03T16:29:27;13.0;40.8
78694;SHT31;68029;51.978;5.646;2023-03-03T16:32:04;12.9;41.2
78694;SHT31;68029;51.978;5.646;2023-03-03T16:34:43;12.7;41.6
78694;SHT31;68029;51.978;5.646;2023-03-03T16:37:24;12.6;41.9
78694;SHT31;68029;51.978;5.646;2023-03-03T16:39:59;12.5;42.5
78694;SHT31;68029;51.978;5.646;2023-03-03T16:42:32;12.4;41.9
78694;SHT31;68029;51.978;5.646;2023-03-03T16:45:24;12.3;42.3
78694;SHT31;68029;51.978;5.646;2023-03-03T16:48:25;12.2;42.4
78694;SHT31;68029;51.978;5.646;2023-03-03T16:51:18;12.1;42.6
78694;SHT31;68029;51.978;5.646;2023-03-03T16:54:04;12.0;42.6
78694;SHT31;68029;51.978;5.646;2023-03-03T16:56:41;11.9;42.9
78694;SHT31;68029;51.978;5.646;2023-03-03T16:59:38;11.8;43.0
78694;SHT31;68029;51.978;5.646;2023-03-03T17:02:25;11.7;43.4
78694;SHT31;68029;51.978;5.646;2023-03-03T17:05:10;11.7;43.6
78694;SHT31;68029;51.978;5.646;2023-03-03T17:07:47;11.6;43.6
78694;SHT31;68029;51.978;5.646;2023-03-03T17:10:24;11.6;43.8
78694;SHT31;68029;51.978;5.646;2023-03-03T17:13:20;11.5;43.7
78694;SHT31;68029;51.978;5.646;2023-03-03T17:16:04;11.5;43.9
78694;SHT31;68029;51.978;5.646;2023-03-03T17:18:48;11.4;43.9
78694;SHT31;68029;51.978;5.646;2023-03-03T17:21:31;11.4;43.7